メインページ
METAR-TAF:

METAR-TAF

空港 :

ヌジリ国際空港

キンシャサ, コンゴ

緯度: 04-23S, 経度: 015-26E, 海抜: 309m

現時点の気象観測

当レポートは1時間20分前の08:00(UTC)に作成
西/南西の風 8kt
気温 23°C
湿度 78%
気圧 1017 hPa
視程: 4000m
高度1600ftの千切れ雲あり

METAR: FZAA 200800Z 24008KT 4000 BR BKN016 23/19 Q1017 NOSIG

時間: 10:20 (09:20 UTC)

予報

当レポートは4時間20分前の05:00(UTC)に作成
予報は20日の 06時(UTC)から 21日の 12時(UTC)まで有効
西の風 6kt
視程: 4000m
高度1600ftの千切れ雲あり
20日の 10時(UTC)から 20日の 12時(UTC)まで徐々に
視程: 5000m
煙霧
21日の 04時(UTC)から 21日の 06時(UTC)まで一時的に
視程: 3000m

TAF: FZAA 200500Z 2006/2112 26006KT 4000 BR BKN016 BECMG 2010/2012 5000 HZ NSC TEMPO 2104/2106 3000 BR

4,000以上の空港の気象観測と天気予報(METAR報とTAF報)

利用可能な観測所は地図上に黄色い丸と赤い丸で示す。

丸の上にカーソルを重ねると観測所名を参照できる。

次にクリックすると気象観測と天気予報を参照できる。

マップの切り替え:黒色「×」印の緑ボタンをクリックして拡大、「-」印の緑ボタンをクリックして縮小、緑色の三角印をクリックして隣りの地図に切り替え


METAR-TAF: